sensor_id;sensor_type;location;lat;lon;timestamp;P1;durP1;ratioP1;P2;durP2;ratioP2
57627;SDS011;43451;49.060;10.616;2024-01-30T00:01:04;26.23;;;13.18;;
57627;SDS011;43451;49.060;10.616;2024-01-30T00:03:30;25.50;;;13.05;;
57627;SDS011;43451;49.060;10.616;2024-01-30T00:05:55;26.80;;;13.80;;
57627;SDS011;43451;49.060;10.616;2024-01-30T00:08:21;21.20;;;12.13;;
57627;SDS011;43451;49.060;10.616;2024-01-30T00:10:46;22.70;;;11.57;;
57627;SDS011;43451;49.060;10.616;2024-01-30T00:13:12;20.40;;;11.18;;
57627;SDS011;43451;49.060;10.616;2024-01-30T00:15:39;21.00;;;10.93;;
57627;SDS011;43451;49.060;10.616;2024-01-30T00:18:04;17.70;;;11.02;;
57627;SDS011;43451;49.060;10.616;2024-01-30T00:20:30;20.85;;;10.73;;
57627;SDS011;43451;49.060;10.616;2024-01-30T00:22:55;18.92;;;10.48;;
57627;SDS011;43451;49.060;10.616;2024-01-30T00:25:20;17.98;;;10.82;;
57627;SDS011;43451;49.060;10.616;2024-01-30T00:27:46;15.98;;;9.70;;
57627;SDS011;43451;49.060;10.616;2024-01-30T00:30:12;18.05;;;9.38;;
57627;SDS011;43451;49.060;10.616;2024-01-30T00:32:37;16.00;;;9.13;;
57627;SDS011;43451;49.060;10.616;2024-01-30T00:35:03;14.43;;;9.07;;
57627;SDS011;43451;49.060;10.616;2024-01-30T00:37:28;18.65;;;9.50;;
57627;SDS011;43451;49.060;10.616;2024-01-30T00:39:54;17.25;;;9.25;;
57627;SDS011;43451;49.060;10.616;2024-01-30T00:42:19;17.75;;;9.68;;
57627;SDS011;43451;49.060;10.616;2024-01-30T00:44:45;15.05;;;9.07;;
57627;SDS011;43451;49.060;10.616;2024-01-30T00:47:10;14.82;;;9.05;;
57627;SDS011;43451;49.060;10.616;2024-01-30T00:49:36;16.42;;;8.82;;
57627;SDS011;43451;49.060;10.616;2024-01-30T00:52:01;14.27;;;8.68;;
57627;SDS011;43451;49.060;10.616;2024-01-30T00:54:27;15.20;;;8.95;;
57627;SDS011;43451;49.060;10.616;2024-01-30T00:56:52;14.88;;;8.85;;
57627;SDS011;43451;49.060;10.616;2024-01-30T00:59:18;15.48;;;9.43;;
57627;SDS011;43451;49.060;10.616;2024-01-30T01:01:43;16.85;;;8.90;;
57627;SDS011;43451;49.060;10.616;2024-01-30T01:04:09;14.60;;;9.30;;
57627;SDS011;43451;49.060;10.616;2024-01-30T01:06:34;15.75;;;9.35;;
57627;SDS011;43451;49.060;10.616;2024-01-30T01:09:00;18.38;;;9.63;;
57627;SDS011;43451;49.060;10.616;2024-01-30T01:11:26;18.95;;;9.68;;
57627;SDS011;43451;49.060;10.616;2024-01-30T01:13:51;17.30;;;9.65;;
57627;SDS011;43451;49.060;10.616;2024-01-30T01:16:17;17.13;;;9.60;;
57627;SDS011;43451;49.060;10.616;2024-01-30T01:18:42;15.75;;;9.77;;
57627;SDS011;43451;49.060;10.616;2024-01-30T01:21:08;14.70;;;9.38;;
57627;SDS011;43451;49.060;10.616;2024-01-30T01:23:33;17.40;;;10.05;;
57627;SDS011;43451;49.060;10.616;2024-01-30T01:25:59;16.05;;;9.38;;
57627;SDS011;43451;49.060;10.616;2024-01-30T01:28:26;16.48;;;9.45;;
57627;SDS011;43451;49.060;10.616;2024-01-30T01:30:52;16.15;;;9.02;;
57627;SDS011;43451;49.060;10.616;2024-01-30T01:33:17;15.60;;;9.05;;
57627;SDS011;43451;49.060;10.616;2024-01-30T01:35:43;14.43;;;8.85;;
57627;SDS011;43451;49.060;10.616;2024-01-30T01:38:08;15.38;;;8.73;;
57627;SDS011;43451;49.060;10.616;2024-01-30T01:40:34;13.57;;;9.02;;
57627;SDS011;43451;49.060;10.616;2024-01-30T01:43:02;15.07;;;9.10;;
57627;SDS011;43451;49.060;10.616;2024-01-30T01:45:29;14.68;;;8.90;;
57627;SDS011;43451;49.060;10.616;2024-01-30T01:47:55;14.15;;;8.98;;
57627;SDS011;43451;49.060;10.616;2024-01-30T01:50:21;14.73;;;8.98;;
57627;SDS011;43451;49.060;10.616;2024-01-30T01:52:47;12.60;;;8.52;;
57627;SDS011;43451;49.060;10.616;2024-01-30T01:55:13;15.68;;;8.93;;
57627;SDS011;43451;49.060;10.616;2024-01-30T01:57:46;14.90;;;9.38;;
57627;SDS011;43451;49.060;10.616;2024-01-30T02:00:12;16.50;;;8.98;;
57627;SDS011;43451;49.060;10.616;2024-01-30T02:02:38;13.85;;;8.93;;
57627;SDS011;43451;49.060;10.616;2024-01-30T02:05:04;14.00;;;8.35;;
57627;SDS011;43451;49.060;10.616;2024-01-30T02:07:30;14.85;;;9.32;;
57627;SDS011;43451;49.060;10.616;2024-01-30T02:09:56;13.65;;;8.85;;
57627;SDS011;43451;49.060;10.616;2024-01-30T02:12:21;13.90;;;8.48;;
57627;SDS011;43451;49.060;10.616;2024-01-30T02:14:47;14.93;;;8.88;;
57627;SDS011;43451;49.060;10.616;2024-01-30T02:17:14;13.88;;;8.23;;
57627;SDS011;43451;49.060;10.616;2024-01-30T02:19:40;17.23;;;9.65;;
57627;SDS011;43451;49.060;10.616;2024-01-30T02:22:06;16.38;;;8.95;;
57627;SDS011;43451;49.060;10.616;2024-01-30T02:24:33;16.77;;;9.13;;
57627;SDS011;43451;49.060;10.616;2024-01-30T02:26:58;14.57;;;8.90;;
57627;SDS011;43451;49.060;10.616;2024-01-30T02:29:24;13.13;;;8.55;;
57627;SDS011;43451;49.060;10.616;2024-01-30T02:31:50;16.67;;;8.88;;
57627;SDS011;43451;49.060;10.616;2024-01-30T02:34:15;16.85;;;9.00;;
57627;SDS011;43451;49.060;10.616;2024-01-30T02:36:44;14.32;;;8.60;;
57627;SDS011;43451;49.060;10.616;2024-01-30T02:39:10;14.07;;;9.32;;
57627;SDS011;43451;49.060;10.616;2024-01-30T02:41:36;14.32;;;8.98;;
57627;SDS011;43451;49.060;10.616;2024-01-30T02:44:02;16.23;;;9.35;;
57627;SDS011;43451;49.060;10.616;2024-01-30T02:46:30;17.98;;;9.27;;
57627;SDS011;43451;49.060;10.616;2024-01-30T02:48:56;14.10;;;8.95;;
57627;SDS011;43451;49.060;10.616;2024-01-30T02:51:21;15.30;;;8.95;;
57627;SDS011;43451;49.060;10.616;2024-01-30T02:53:47;13.88;;;8.75;;
57627;SDS011;43451;49.060;10.616;2024-01-30T02:56:12;14.80;;;9.23;;
57627;SDS011;43451;49.060;10.616;2024-01-30T02:58:39;15.82;;;8.57;;
57627;SDS011;43451;49.060;10.616;2024-01-30T03:03:42;15.13;;;8.85;;
57627;SDS011;43451;49.060;10.616;2024-01-30T03:06:08;16.25;;;9.13;;
57627;SDS011;43451;49.060;10.616;2024-01-30T03:08:34;15.27;;;9.35;;
57627;SDS011;43451;49.060;10.616;2024-01-30T03:11:00;15.15;;;9.07;;
57627;SDS011;43451;49.060;10.616;2024-01-30T03:13:26;15.95;;;9.30;;
57627;SDS011;43451;49.060;10.616;2024-01-30T03:15:52;15.70;;;9.50;;
57627;SDS011;43451;49.060;10.616;2024-01-30T03:18:17;15.68;;;9.27;;
57627;SDS011;43451;49.060;10.616;2024-01-30T03:20:43;15.43;;;9.52;;
57627;SDS011;43451;49.060;10.616;2024-01-30T03:23:08;16.17;;;9.25;;
57627;SDS011;43451;49.060;10.616;2024-01-30T03:25:34;16.38;;;9.02;;
57627;SDS011;43451;49.060;10.616;2024-01-30T03:27:59;17.40;;;9.43;;
57627;SDS011;43451;49.060;10.616;2024-01-30T03:30:25;16.20;;;8.90;;
57627;SDS011;43451;49.060;10.616;2024-01-30T03:32:50;14.80;;;9.25;;
57627;SDS011;43451;49.060;10.616;2024-01-30T03:35:16;14.82;;;9.07;;
57627;SDS011;43451;49.060;10.616;2024-01-30T03:37:41;17.00;;;9.23;;
57627;SDS011;43451;49.060;10.616;2024-01-30T03:40:07;15.80;;;8.95;;
57627;SDS011;43451;49.060;10.616;2024-01-30T03:42:33;16.10;;;9.27;;
57627;SDS011;43451;49.060;10.616;2024-01-30T03:44:59;16.40;;;9.38;;
57627;SDS011;43451;49.060;10.616;2024-01-30T03:47:24;14.65;;;8.68;;
57627;SDS011;43451;49.060;10.616;2024-01-30T03:49:50;16.27;;;9.20;;
57627;SDS011;43451;49.060;10.616;2024-01-30T03:52:15;14.05;;;8.85;;
57627;SDS011;43451;49.060;10.616;2024-01-30T03:54:41;19.45;;;9.13;;
57627;SDS011;43451;49.060;10.616;2024-01-30T03:57:06;15.80;;;9.10;;
57627;SDS011;43451;49.060;10.616;2024-01-30T03:59:32;16.40;;;9.25;;
57627;SDS011;43451;49.060;10.616;2024-01-30T04:01:57;17.13;;;9.63;;
57627;SDS011;43451;49.060;10.616;2024-01-30T04:04:23;17.25;;;9.57;;
57627;SDS011;43451;49.060;10.616;2024-01-30T04:06:48;15.07;;;9.02;;
57627;SDS011;43451;49.060;10.616;2024-01-30T04:09:14;19.40;;;9.20;;
57627;SDS011;43451;49.060;10.616;2024-01-30T04:11:40;17.00;;;9.35;;
57627;SDS011;43451;49.060;10.616;2024-01-30T04:14:05;16.10;;;9.07;;
57627;SDS011;43451;49.060;10.616;2024-01-30T04:16:31;15.30;;;9.48;;
57627;SDS011;43451;49.060;10.616;2024-01-30T04:18:57;15.18;;;9.30;;
57627;SDS011;43451;49.060;10.616;2024-01-30T04:21:23;16.58;;;9.85;;
57627;SDS011;43451;49.060;10.616;2024-01-30T04:23:52;18.17;;;10.45;;
57627;SDS011;43451;49.060;10.616;2024-01-30T04:26:18;16.95;;;10.30;;
57627;SDS011;43451;49.060;10.616;2024-01-30T04:28:46;15.18;;;9.48;;
57627;SDS011;43451;49.060;10.616;2024-01-30T04:31:12;16.30;;;9.80;;
57627;SDS011;43451;49.060;10.616;2024-01-30T04:33:38;19.52;;;10.20;;
57627;SDS011;43451;49.060;10.616;2024-01-30T04:36:03;16.65;;;9.50;;
57627;SDS011;43451;49.060;10.616;2024-01-30T04:38:30;16.60;;;10.35;;
57627;SDS011;43451;49.060;10.616;2024-01-30T04:40:56;16.77;;;10.10;;
57627;SDS011;43451;49.060;10.616;2024-01-30T04:43:22;16.67;;;9.98;;
57627;SDS011;43451;49.060;10.616;2024-01-30T04:45:47;20.27;;;10.63;;
57627;SDS011;43451;49.060;10.616;2024-01-30T04:48:13;17.42;;;10.43;;
57627;SDS011;43451;49.060;10.616;2024-01-30T04:50:39;16.20;;;9.68;;
57627;SDS011;43451;49.060;10.616;2024-01-30T04:53:05;19.45;;;10.10;;
57627;SDS011;43451;49.060;10.616;2024-01-30T04:55:30;16.35;;;10.55;;
57627;SDS011;43451;49.060;10.616;2024-01-30T04:57:56;18.45;;;10.63;;
57627;SDS011;43451;49.060;10.616;2024-01-30T05:00:21;17.50;;;10.90;;
57627;SDS011;43451;49.060;10.616;2024-01-30T05:02:47;16.35;;;10.43;;
57627;SDS011;43451;49.060;10.616;2024-01-30T05:05:12;16.27;;;10.18;;
57627;SDS011;43451;49.060;10.616;2024-01-30T05:07:39;17.92;;;10.85;;
57627;SDS011;43451;49.060;10.616;2024-01-30T05:12:32;16.90;;;9.95;;
57627;SDS011;43451;49.060;10.616;2024-01-30T05:14:57;17.55;;;10.10;;
57627;SDS011;43451;49.060;10.616;2024-01-30T05:17:23;17.25;;;10.63;;
57627;SDS011;43451;49.060;10.616;2024-01-30T05:19:48;15.68;;;10.38;;
57627;SDS011;43451;49.060;10.616;2024-01-30T05:22:14;16.80;;;9.90;;
57627;SDS011;43451;49.060;10.616;2024-01-30T05:24:41;18.40;;;11.00;;
57627;SDS011;43451;49.060;10.616;2024-01-30T05:27:07;19.02;;;11.27;;
57627;SDS011;43451;49.060;10.616;2024-01-30T05:29:33;19.50;;;10.80;;
57627;SDS011;43451;49.060;10.616;2024-01-30T05:31:59;20.80;;;11.50;;
57627;SDS011;43451;49.060;10.616;2024-01-30T05:34:24;18.52;;;10.90;;
57627;SDS011;43451;49.060;10.616;2024-01-30T05:36:50;19.23;;;11.48;;
57627;SDS011;43451;49.060;10.616;2024-01-30T05:39:16;19.17;;;11.32;;
57627;SDS011;43451;49.060;10.616;2024-01-30T05:41:41;18.77;;;10.90;;
57627;SDS011;43451;49.060;10.616;2024-01-30T05:44:07;20.10;;;11.05;;
57627;SDS011;43451;49.060;10.616;2024-01-30T05:46:33;20.88;;;11.27;;
57627;SDS011;43451;49.060;10.616;2024-01-30T05:48:59;17.27;;;10.98;;
57627;SDS011;43451;49.060;10.616;2024-01-30T05:51:24;21.40;;;10.88;;
57627;SDS011;43451;49.060;10.616;2024-01-30T05:53:50;18.98;;;10.80;;
57627;SDS011;43451;49.060;10.616;2024-01-30T05:56:15;18.48;;;10.60;;
57627;SDS011;43451;49.060;10.616;2024-01-30T05:58:41;18.25;;;10.88;;
57627;SDS011;43451;49.060;10.616;2024-01-30T06:01:08;18.73;;;11.77;;
57627;SDS011;43451;49.060;10.616;2024-01-30T06:03:34;19.38;;;10.70;;
57627;SDS011;43451;49.060;10.616;2024-01-30T06:05:59;22.17;;;11.52;;
57627;SDS011;43451;49.060;10.616;2024-01-30T06:08:25;19.27;;;11.02;;
57627;SDS011;43451;49.060;10.616;2024-01-30T06:10:50;19.80;;;11.93;;
57627;SDS011;43451;49.060;10.616;2024-01-30T06:13:16;22.05;;;12.50;;
57627;SDS011;43451;49.060;10.616;2024-01-30T06:15:42;22.63;;;12.88;;
57627;SDS011;43451;49.060;10.616;2024-01-30T06:18:08;21.63;;;12.60;;
57627;SDS011;43451;49.060;10.616;2024-01-30T06:20:34;21.33;;;12.07;;
57627;SDS011;43451;49.060;10.616;2024-01-30T06:23:00;24.33;;;12.50;;
57627;SDS011;43451;49.060;10.616;2024-01-30T06:25:26;19.83;;;12.32;;
57627;SDS011;43451;49.060;10.616;2024-01-30T06:27:52;21.95;;;12.45;;
57627;SDS011;43451;49.060;10.616;2024-01-30T06:30:17;22.13;;;12.45;;
57627;SDS011;43451;49.060;10.616;2024-01-30T06:32:43;22.90;;;11.93;;
57627;SDS011;43451;49.060;10.616;2024-01-30T06:35:08;21.88;;;11.98;;
57627;SDS011;43451;49.060;10.616;2024-01-30T06:37:35;22.77;;;12.30;;
57627;SDS011;43451;49.060;10.616;2024-01-30T06:40:01;23.42;;;12.80;;
57627;SDS011;43451;49.060;10.616;2024-01-30T06:42:26;21.33;;;12.13;;
57627;SDS011;43451;49.060;10.616;2024-01-30T06:44:52;20.88;;;12.07;;
57627;SDS011;43451;49.060;10.616;2024-01-30T06:47:17;22.13;;;12.65;;
57627;SDS011;43451;49.060;10.616;2024-01-30T06:49:43;20.73;;;12.18;;
57627;SDS011;43451;49.060;10.616;2024-01-30T06:52:09;22.80;;;12.75;;
57627;SDS011;43451;49.060;10.616;2024-01-30T06:54:34;21.25;;;12.00;;
57627;SDS011;43451;49.060;10.616;2024-01-30T06:57:00;22.92;;;12.65;;
57627;SDS011;43451;49.060;10.616;2024-01-30T06:59:26;22.00;;;12.48;;
57627;SDS011;43451;49.060;10.616;2024-01-30T07:01:51;23.50;;;13.07;;
57627;SDS011;43451;49.060;10.616;2024-01-30T07:04:17;23.55;;;13.88;;
57627;SDS011;43451;49.060;10.616;2024-01-30T07:06:43;22.08;;;12.38;;
57627;SDS011;43451;49.060;10.616;2024-01-30T07:09:09;24.05;;;12.93;;
57627;SDS011;43451;49.060;10.616;2024-01-30T07:11:35;24.50;;;13.65;;
57627;SDS011;43451;49.060;10.616;2024-01-30T07:14:00;22.80;;;13.52;;
57627;SDS011;43451;49.060;10.616;2024-01-30T07:18:54;26.02;;;13.90;;
57627;SDS011;43451;49.060;10.616;2024-01-30T07:21:19;23.80;;;13.52;;
57627;SDS011;43451;49.060;10.616;2024-01-30T07:23:46;24.23;;;13.27;;
57627;SDS011;43451;49.060;10.616;2024-01-30T07:26:12;22.70;;;13.40;;
57627;SDS011;43451;49.060;10.616;2024-01-30T07:28:38;23.73;;;13.98;;
57627;SDS011;43451;49.060;10.616;2024-01-30T07:31:03;23.63;;;13.23;;
57627;SDS011;43451;49.060;10.616;2024-01-30T07:33:29;24.25;;;14.30;;
57627;SDS011;43451;49.060;10.616;2024-01-30T07:35:54;24.20;;;14.43;;
57627;SDS011;43451;49.060;10.616;2024-01-30T07:38:20;27.52;;;14.18;;
57627;SDS011;43451;49.060;10.616;2024-01-30T07:40:46;22.30;;;13.65;;
57627;SDS011;43451;49.060;10.616;2024-01-30T07:43:12;23.73;;;13.88;;
57627;SDS011;43451;49.060;10.616;2024-01-30T07:45:37;27.40;;;13.45;;
57627;SDS011;43451;49.060;10.616;2024-01-30T07:48:04;25.63;;;14.02;;
57627;SDS011;43451;49.060;10.616;2024-01-30T07:50:30;25.40;;;13.85;;
57627;SDS011;43451;49.060;10.616;2024-01-30T07:52:56;23.65;;;13.65;;
57627;SDS011;43451;49.060;10.616;2024-01-30T07:55:22;26.38;;;14.48;;
57627;SDS011;43451;49.060;10.616;2024-01-30T07:57:52;27.15;;;14.80;;
57627;SDS011;43451;49.060;10.616;2024-01-30T08:00:18;25.48;;;14.63;;
57627;SDS011;43451;49.060;10.616;2024-01-30T08:02:47;24.83;;;14.18;;
57627;SDS011;43451;49.060;10.616;2024-01-30T08:05:13;22.50;;;14.18;;
57627;SDS011;43451;49.060;10.616;2024-01-30T08:07:43;22.52;;;14.23;;
57627;SDS011;43451;49.060;10.616;2024-01-30T08:10:10;25.77;;;14.05;;
57627;SDS011;43451;49.060;10.616;2024-01-30T08:12:36;24.23;;;14.45;;
57627;SDS011;43451;49.060;10.616;2024-01-30T08:15:02;25.80;;;15.25;;
57627;SDS011;43451;49.060;10.616;2024-01-30T08:17:28;20.98;;;13.77;;
57627;SDS011;43451;49.060;10.616;2024-01-30T08:19:54;25.67;;;14.90;;
57627;SDS011;43451;49.060;10.616;2024-01-30T08:22:19;20.95;;;13.73;;
57627;SDS011;43451;49.060;10.616;2024-01-30T08:24:45;18.42;;;11.98;;
57627;SDS011;43451;49.060;10.616;2024-01-30T08:27:10;20.63;;;12.52;;
57627;SDS011;43451;49.060;10.616;2024-01-30T08:29:37;24.45;;;13.77;;
57627;SDS011;43451;49.060;10.616;2024-01-30T08:32:03;21.45;;;12.75;;
57627;SDS011;43451;49.060;10.616;2024-01-30T08:34:29;19.85;;;12.60;;
57627;SDS011;43451;49.060;10.616;2024-01-30T08:36:55;21.95;;;12.85;;
57627;SDS011;43451;49.060;10.616;2024-01-30T08:39:20;23.23;;;13.43;;
57627;SDS011;43451;49.060;10.616;2024-01-30T08:41:46;21.27;;;12.80;;
57627;SDS011;43451;49.060;10.616;2024-01-30T08:44:11;19.33;;;12.27;;
57627;SDS011;43451;49.060;10.616;2024-01-30T08:46:37;22.85;;;13.10;;
57627;SDS011;43451;49.060;10.616;2024-01-30T08:49:02;28.25;;;12.40;;
57627;SDS011;43451;49.060;10.616;2024-01-30T08:51:29;19.70;;;12.50;;
57627;SDS011;43451;49.060;10.616;2024-01-30T08:53:55;20.95;;;12.43;;
57627;SDS011;43451;49.060;10.616;2024-01-30T08:56:21;19.60;;;12.57;;
57627;SDS011;43451;49.060;10.616;2024-01-30T08:58:47;19.95;;;13.20;;
57627;SDS011;43451;49.060;10.616;2024-01-30T09:01:12;20.70;;;12.35;;
57627;SDS011;43451;49.060;10.616;2024-01-30T09:03:38;19.73;;;12.70;;
57627;SDS011;43451;49.060;10.616;2024-01-30T09:06:15;19.80;;;12.90;;
57627;SDS011;43451;49.060;10.616;2024-01-30T09:08:40;21.05;;;13.13;;
57627;SDS011;43451;49.060;10.616;2024-01-30T09:11:09;22.08;;;13.00;;
57627;SDS011;43451;49.060;10.616;2024-01-30T09:13:36;19.58;;;12.20;;
57627;SDS011;43451;49.060;10.616;2024-01-30T09:16:02;21.45;;;12.43;;
57627;SDS011;43451;49.060;10.616;2024-01-30T09:18:28;18.10;;;11.93;;
57627;SDS011;43451;49.060;10.616;2024-01-30T09:20:53;19.63;;;12.68;;
57627;SDS011;43451;49.060;10.616;2024-01-30T09:23:19;21.20;;;12.88;;
57627;SDS011;43451;49.060;10.616;2024-01-30T09:25:44;19.27;;;12.45;;
57627;SDS011;43451;49.060;10.616;2024-01-30T09:28:10;20.52;;;12.73;;
57627;SDS011;43451;49.060;10.616;2024-01-30T09:30:36;20.48;;;12.75;;
57627;SDS011;43451;49.060;10.616;2024-01-30T09:33:02;19.77;;;12.07;;
57627;SDS011;43451;49.060;10.616;2024-01-30T09:35:27;18.85;;;11.93;;
57627;SDS011;43451;49.060;10.616;2024-01-30T09:37:54;20.00;;;12.65;;
57627;SDS011;43451;49.060;10.616;2024-01-30T09:40:19;21.15;;;12.68;;
57627;SDS011;43451;49.060;10.616;2024-01-30T09:42:48;18.48;;;12.27;;
57627;SDS011;43451;49.060;10.616;2024-01-30T09:45:15;20.10;;;12.30;;
57627;SDS011;43451;49.060;10.616;2024-01-30T09:47:43;21.33;;;12.93;;
57627;SDS011;43451;49.060;10.616;2024-01-30T09:50:11;17.65;;;11.93;;
57627;SDS011;43451;49.060;10.616;2024-01-30T09:52:38;19.85;;;12.40;;
57627;SDS011;43451;49.060;10.616;2024-01-30T09:55:05;19.95;;;12.45;;
57627;SDS011;43451;49.060;10.616;2024-01-30T09:57:32;20.40;;;12.73;;
57627;SDS011;43451;49.060;10.616;2024-01-30T09:59:58;18.90;;;13.32;;
57627;SDS011;43451;49.060;10.616;2024-01-30T10:02:23;19.08;;;12.63;;
57627;SDS011;43451;49.060;10.616;2024-01-30T10:04:49;18.02;;;12.38;;
57627;SDS011;43451;49.060;10.616;2024-01-30T10:07:19;19.50;;;12.63;;
57627;SDS011;43451;49.060;10.616;2024-01-30T10:09:45;20.48;;;13.05;;
57627;SDS011;43451;49.060;10.616;2024-01-30T10:12:11;19.23;;;12.38;;
57627;SDS011;43451;49.060;10.616;2024-01-30T10:14:41;21.08;;;12.38;;
57627;SDS011;43451;49.060;10.616;2024-01-30T10:17:10;21.35;;;12.38;;
57627;SDS011;43451;49.060;10.616;2024-01-30T10:19:40;18.20;;;12.27;;
57627;SDS011;43451;49.060;10.616;2024-01-30T10:22:07;19.90;;;12.52;;
57627;SDS011;43451;49.060;10.616;2024-01-30T10:24:33;19.60;;;12.32;;
57627;SDS011;43451;49.060;10.616;2024-01-30T10:26:59;21.52;;;13.05;;
57627;SDS011;43451;49.060;10.616;2024-01-30T10:29:25;19.52;;;12.32;;
57627;SDS011;43451;49.060;10.616;2024-01-30T10:32:24;19.35;;;12.70;;
57627;SDS011;43451;49.060;10.616;2024-01-30T10:34:42;17.45;;;12.20;;
57627;SDS011;43451;49.060;10.616;2024-01-30T10:37:09;20.30;;;12.82;;
57627;SDS011;43451;49.060;10.616;2024-01-30T10:39:41;19.20;;;12.60;;
57627;SDS011;43451;49.060;10.616;2024-01-30T10:42:17;18.95;;;12.18;;
57627;SDS011;43451;49.060;10.616;2024-01-30T10:47:26;19.23;;;12.02;;
57627;SDS011;43451;49.060;10.616;2024-01-30T10:49:54;20.00;;;13.02;;
57627;SDS011;43451;49.060;10.616;2024-01-30T10:52:20;21.45;;;12.73;;
57627;SDS011;43451;49.060;10.616;2024-01-30T10:54:46;19.10;;;12.63;;
57627;SDS011;43451;49.060;10.616;2024-01-30T10:57:12;22.35;;;12.75;;
57627;SDS011;43451;49.060;10.616;2024-01-30T11:02:06;18.60;;;12.85;;
57627;SDS011;43451;49.060;10.616;2024-01-30T11:04:35;21.27;;;12.57;;
57627;SDS011;43451;49.060;10.616;2024-01-30T11:07:01;21.60;;;13.43;;
57627;SDS011;43451;49.060;10.616;2024-01-30T11:09:29;20.17;;;13.70;;
57627;SDS011;43451;49.060;10.616;2024-01-30T11:11:58;19.15;;;12.25;;
57627;SDS011;43451;49.060;10.616;2024-01-30T11:14:28;24.00;;;13.30;;
57627;SDS011;43451;49.060;10.616;2024-01-30T11:16:58;19.38;;;12.90;;
57627;SDS011;43451;49.060;10.616;2024-01-30T11:19:25;22.17;;;13.90;;
57627;SDS011;43451;49.060;10.616;2024-01-30T11:21:54;18.67;;;12.50;;
57627;SDS011;43451;49.060;10.616;2024-01-30T11:24:22;19.50;;;12.27;;
57627;SDS011;43451;49.060;10.616;2024-01-30T11:27:01;21.65;;;12.63;;
57627;SDS011;43451;49.060;10.616;2024-01-30T11:29:33;21.75;;;12.88;;
57627;SDS011;43451;49.060;10.616;2024-01-30T11:32:00;18.77;;;12.38;;
57627;SDS011;43451;49.060;10.616;2024-01-30T11:34:26;19.02;;;11.93;;
57627;SDS011;43451;49.060;10.616;2024-01-30T11:36:55;20.45;;;12.63;;
57627;SDS011;43451;49.060;10.616;2024-01-30T11:39:25;19.30;;;12.45;;
57627;SDS011;43451;49.060;10.616;2024-01-30T11:41:51;19.88;;;12.45;;
57627;SDS011;43451;49.060;10.616;2024-01-30T11:44:21;20.50;;;12.55;;
57627;SDS011;43451;49.060;10.616;2024-01-30T11:46:51;20.85;;;12.45;;
57627;SDS011;43451;49.060;10.616;2024-01-30T11:49:17;19.23;;;11.98;;
57627;SDS011;43451;49.060;10.616;2024-01-30T11:51:43;20.00;;;12.80;;
57627;SDS011;43451;49.060;10.616;2024-01-30T11:54:10;18.80;;;12.88;;
57627;SDS011;43451;49.060;10.616;2024-01-30T11:56:37;20.92;;;12.65;;
57627;SDS011;43451;49.060;10.616;2024-01-30T11:59:03;20.90;;;12.50;;
57627;SDS011;43451;49.060;10.616;2024-01-30T12:01:29;17.25;;;12.02;;
57627;SDS011;43451;49.060;10.616;2024-01-30T12:03:58;21.05;;;13.00;;
57627;SDS011;43451;49.060;10.616;2024-01-30T12:06:24;20.30;;;12.23;;
57627;SDS011;43451;49.060;10.616;2024-01-30T12:09:00;21.20;;;12.27;;
57627;SDS011;43451;49.060;10.616;2024-01-30T12:11:29;17.77;;;12.00;;
57627;SDS011;43451;49.060;10.616;2024-01-30T12:13:55;17.40;;;11.32;;
57627;SDS011;43451;49.060;10.616;2024-01-30T12:16:21;18.70;;;11.27;;
57627;SDS011;43451;49.060;10.616;2024-01-30T12:18:48;17.55;;;11.20;;
57627;SDS011;43451;49.060;10.616;2024-01-30T12:21:17;19.60;;;11.95;;
57627;SDS011;43451;49.060;10.616;2024-01-30T12:23:43;16.08;;;11.20;;
57627;SDS011;43451;49.060;10.616;2024-01-30T12:26:10;14.52;;;10.60;;
57627;SDS011;43451;49.060;10.616;2024-01-30T12:28:36;17.70;;;10.90;;
57627;SDS011;43451;49.060;10.616;2024-01-30T12:31:02;15.95;;;10.85;;
57627;SDS011;43451;49.060;10.616;2024-01-30T12:33:28;14.55;;;10.48;;
57627;SDS011;43451;49.060;10.616;2024-01-30T12:35:55;14.82;;;10.25;;
57627;SDS011;43451;49.060;10.616;2024-01-30T12:38:22;15.25;;;10.07;;
57627;SDS011;43451;49.060;10.616;2024-01-30T12:40:50;16.55;;;10.38;;
57627;SDS011;43451;49.060;10.616;2024-01-30T12:43:21;16.75;;;11.40;;
57627;SDS011;43451;49.060;10.616;2024-01-30T12:45:47;17.13;;;11.10;;
57627;SDS011;43451;49.060;10.616;2024-01-30T12:48:12;14.75;;;10.27;;
57627;SDS011;43451;49.060;10.616;2024-01-30T12:50:38;15.13;;;10.73;;
57627;SDS011;43451;49.060;10.616;2024-01-30T12:53:04;16.23;;;10.65;;
57627;SDS011;43451;49.060;10.616;2024-01-30T12:55:30;16.85;;;11.30;;
57627;SDS011;43451;49.060;10.616;2024-01-30T12:57:56;15.50;;;10.55;;
57627;SDS011;43451;49.060;10.616;2024-01-30T13:00:22;15.82;;;11.02;;
57627;SDS011;43451;49.060;10.616;2024-01-30T13:02:47;16.50;;;11.48;;
57627;SDS011;43451;49.060;10.616;2024-01-30T13:05:13;15.65;;;11.32;;
57627;SDS011;43451;49.060;10.616;2024-01-30T13:07:39;17.92;;;11.48;;
57627;SDS011;43451;49.060;10.616;2024-01-30T13:10:05;14.77;;;11.00;;
57627;SDS011;43451;49.060;10.616;2024-01-30T13:12:31;18.30;;;11.18;;
57627;SDS011;43451;49.060;10.616;2024-01-30T13:15:00;15.52;;;10.88;;
57627;SDS011;43451;49.060;10.616;2024-01-30T13:17:27;16.60;;;11.20;;
57627;SDS011;43451;49.060;10.616;2024-01-30T13:19:52;16.98;;;10.68;;
57627;SDS011;43451;49.060;10.616;2024-01-30T13:22:19;14.10;;;10.07;;
57627;SDS011;43451;49.060;10.616;2024-01-30T13:24:47;14.85;;;10.25;;
57627;SDS011;43451;49.060;10.616;2024-01-30T13:27:13;17.13;;;10.77;;
57627;SDS011;43451;49.060;10.616;2024-01-30T13:29:39;15.30;;;10.23;;
57627;SDS011;43451;49.060;10.616;2024-01-30T13:32:04;15.10;;;10.23;;
57627;SDS011;43451;49.060;10.616;2024-01-30T13:34:30;13.35;;;9.85;;
57627;SDS011;43451;49.060;10.616;2024-01-30T13:36:56;18.73;;;10.55;;
57627;SDS011;43451;49.060;10.616;2024-01-30T13:39:22;18.42;;;10.32;;
57627;SDS011;43451;49.060;10.616;2024-01-30T13:41:48;15.75;;;10.40;;
57627;SDS011;43451;49.060;10.616;2024-01-30T13:44:15;14.43;;;9.95;;
57627;SDS011;43451;49.060;10.616;2024-01-30T13:46:41;15.55;;;10.55;;
57627;SDS011;43451;49.060;10.616;2024-01-30T13:49:07;15.55;;;10.35;;
57627;SDS011;43451;49.060;10.616;2024-01-30T13:51:33;18.42;;;11.70;;
57627;SDS011;43451;49.060;10.616;2024-01-30T13:53:58;17.02;;;11.93;;
57627;SDS011;43451;49.060;10.616;2024-01-30T13:56:25;18.50;;;11.73;;
57627;SDS011;43451;49.060;10.616;2024-01-30T13:58:52;15.50;;;10.18;;
57627;SDS011;43451;49.060;10.616;2024-01-30T14:01:18;16.40;;;10.50;;
57627;SDS011;43451;49.060;10.616;2024-01-30T14:03:43;16.52;;;11.00;;
57627;SDS011;43451;49.060;10.616;2024-01-30T14:06:09;18.30;;;11.27;;
57627;SDS011;43451;49.060;10.616;2024-01-30T14:08:35;19.42;;;11.07;;
57627;SDS011;43451;49.060;10.616;2024-01-30T14:11:01;16.33;;;11.27;;
57627;SDS011;43451;49.060;10.616;2024-01-30T14:13:27;17.50;;;11.25;;
57627;SDS011;43451;49.060;10.616;2024-01-30T14:15:52;17.75;;;11.90;;
57627;SDS011;43451;49.060;10.616;2024-01-30T14:18:18;21.45;;;16.85;;
57627;SDS011;43451;49.060;10.616;2024-01-30T14:20:44;20.40;;;14.07;;